createdAt,value
2023-08-28T00:00:23.085Z,97819.69
2023-08-28T00:05:25.272Z,97818.66
2023-08-28T00:10:27.404Z,97812.59
2023-08-28T00:15:32.809Z,97830.41
2023-08-28T00:20:34.843Z,97834.28
2023-08-28T00:25:37.826Z,97828.22
2023-08-28T00:30:39.802Z,97833.69
2023-08-28T00:35:44.158Z,97830.28
2023-08-28T00:40:46.233Z,97819.78
2023-08-28T00:45:49.442Z,97820.56
2023-08-28T00:50:52.744Z,97833.94
2023-08-28T00:55:57.896Z,97839.41
2023-08-28T01:00:59.869Z,97838.59
2023-08-28T01:06:24.645Z,97835.97
2023-08-28T01:11:46.758Z,97832.75
2023-08-28T01:16:51.592Z,97830.81
2023-08-28T01:22:17.780Z,97837.66
2023-08-28T01:27:22.244Z,97836.50
2023-08-28T01:32:24.164Z,97834.88
2023-08-28T01:37:31.298Z,97826.44
2023-08-28T01:42:34.874Z,97823.22
2023-08-28T01:52:53.248Z,97796.03
2023-08-28T01:57:55.211Z,97792.81
2023-08-28T02:02:57.260Z,97805.59
2023-08-28T02:07:59.369Z,97811.06
2023-08-28T02:13:05.543Z,97811.16
2023-08-28T02:18:07.921Z,97802.09
2023-08-28T02:23:09.857Z,97815.66
2023-08-28T02:28:12.080Z,97842.13
2023-08-28T02:33:15.544Z,97862.53
2023-08-28T02:38:20.224Z,97870.84
2023-08-28T02:43:22.695Z,97877.34
2023-08-28T02:48:27.710Z,97872.53
2023-08-28T02:53:29.698Z,97888.28
2023-08-28T02:58:31.867Z,97876.16
2023-08-28T03:03:35.508Z,97863.03
2023-08-28T03:08:37.842Z,97870.91
2023-08-28T03:13:40.294Z,97870.91
2023-08-28T03:18:42.293Z,97874.56
2023-08-28T03:23:44.168Z,97879.22
2023-08-28T03:28:46.331Z,97882.88
2023-08-28T03:33:49.256Z,97885.72
2023-08-28T03:38:51.957Z,97888.75
2023-08-28T03:43:53.825Z,97889.97
2023-08-28T03:48:57.215Z,97896.66
2023-08-28T03:53:59.134Z,97888.22
2023-08-28T03:59:01.981Z,97888.44
2023-08-28T04:04:04.232Z,97894.09
2023-08-28T04:09:07.113Z,97893.94
2023-08-28T04:14:11.153Z,97884.47
2023-08-28T04:19:13.619Z,97887.31
2023-08-28T04:24:15.583Z,97878.06
2023-08-28T04:29:17.448Z,97877.25
2023-08-28T04:34:19.478Z,97866.75
2023-08-28T04:39:24.427Z,97858.88
2023-08-28T04:44:26.403Z,97856.25
2023-08-28T04:49:31.046Z,97860.72
2023-08-28T04:54:35.977Z,97859.09
2023-08-28T04:59:38.079Z,97861.50
2023-08-28T05:04:40.402Z,97859.47
2023-08-28T05:09:42.506Z,97878.44
2023-08-28T05:14:45.053Z,97876.16
2023-08-28T05:19:47.269Z,97888.06
2023-08-28T05:24:49.201Z,97891.25
2023-08-28T05:29:53.013Z,97890.47
2023-08-28T05:34:59.346Z,97900.75
2023-08-28T05:40:01.792Z,97896.66
2023-08-28T05:45:04.316Z,97898.06
2023-08-28T05:50:07.947Z,97906.31
2023-08-28T05:55:12.656Z,97907.91
2023-08-28T06:00:15.739Z,97921.03
2023-08-28T06:05:18.415Z,97906.91
2023-08-28T06:10:21.055Z,97910.34
2023-08-28T06:15:23.004Z,97912.53
2023-08-28T06:20:25.023Z,97935.13
2023-08-28T06:25:26.831Z,97927.03
2023-08-28T06:30:28.721Z,97926.25
2023-08-28T06:35:30.760Z,97911.50
2023-08-28T06:40:32.706Z,97924.19
2023-08-28T06:45:34.598Z,97921.38
2023-08-28T06:50:36.515Z,97921.16
2023-08-28T06:55:38.396Z,97922.97
2023-08-28T07:00:40.206Z,97925.81
2023-08-28T07:05:42.083Z,97918.16
2023-08-28T07:10:44.028Z,97924.41
2023-08-28T07:15:45.873Z,97923.41
2023-08-28T07:20:47.909Z,97913.72
2023-08-28T07:25:50.007Z,97920.94
2023-08-28T07:30:58.284Z,97911.47
2023-08-28T07:36:00.348Z,97912.03
2023-08-28T07:41:02.242Z,97904.31
2023-08-28T07:46:05.943Z,97901.47
2023-08-28T07:51:08.106Z,97892.38
2023-08-28T07:56:12.263Z,97885.66
2023-08-28T08:01:14.307Z,97874.13
2023-08-28T08:06:18.158Z,97876.84
2023-08-28T08:11:20.298Z,97861.66
2023-08-28T08:16:22.338Z,97863.84
2023-08-28T08:21:24.236Z,97868.88
2023-08-28T08:26:26.387Z,97867.44
2023-08-28T08:31:28.495Z,97871.81
2023-08-28T08:36:30.389Z,97869.69
2023-08-28T08:41:32.282Z,97866.41
2023-08-28T08:46:34.955Z,97863.34
2023-08-28T08:51:41.489Z,97857.88
2023-08-28T08:56:44.852Z,97866.59
2023-08-28T09:01:48.244Z,97868.56
2023-08-28T09:06:51.201Z,97857.16
2023-08-28T09:11:53.162Z,97867.69
2023-08-28T09:16:55.754Z,97894.53
2023-08-28T09:21:57.671Z,97907.88
2023-08-28T09:27:02.317Z,97910.72
2023-08-28T09:32:04.607Z,97891.19
2023-08-28T09:37:13.334Z,97872.66
2023-08-28T09:42:17.511Z,97862.16
2023-08-28T09:47:24.579Z,97839.97
2023-08-28T09:52:27.488Z,97830.94
2023-08-28T09:57:29.476Z,97828.31
2023-08-28T10:02:32.461Z,97825.91
2023-08-28T10:07:35.289Z,97821.09
2023-08-28T10:12:39.710Z,97817.09
2023-08-28T10:17:43.071Z,97842.78
2023-08-28T10:22:47.758Z,97835.91
2023-08-28T10:27:50.420Z,97838.03
2023-08-28T10:32:57.170Z,97837.09
2023-08-28T10:38:00.984Z,97835.94
2023-08-28T10:43:05.816Z,97845.25
2023-08-28T10:48:08.716Z,97846.78
2023-08-28T10:53:17.727Z,97849.94
2023-08-28T10:58:19.740Z,97859.69
2023-08-28T11:03:54.216Z,97857.31
2023-08-28T11:08:56.155Z,97885.00
2023-08-28T11:14:02.647Z,97886.44
2023-08-28T11:19:14.058Z,97919.31
2023-08-28T11:24:26.675Z,97936.22
2023-08-28T11:29:33.713Z,97946.09
2023-08-28T11:34:36.223Z,97931.72
2023-08-28T11:39:38.430Z,97924.66
2023-08-28T11:44:40.560Z,97900.03
2023-08-28T11:49:46.699Z,97895.59
2023-08-28T11:54:49.629Z,97892.38
2023-08-28T11:59:59.042Z,97900.03
2023-08-28T12:05:01.628Z,97901.66
2023-08-28T12:10:05.182Z,97900.03
2023-08-28T12:15:09.529Z,97892.97
2023-08-28T12:20:23.035Z,97874.41
2023-08-28T12:25:54.725Z,97865.53
2023-08-28T12:30:56.915Z,97834.44
2023-08-28T12:35:58.941Z,97828.19
2023-08-28T12:41:00.863Z,97820.53
2023-08-28T12:46:03.093Z,97827.19
2023-08-28T12:51:05.196Z,97830.22
2023-08-28T12:56:07.133Z,97820.00
2023-08-28T13:01:09.070Z,97818.84
2023-08-28T13:06:11.686Z,97824.72
2023-08-28T13:11:13.807Z,97828.28
2023-08-28T13:16:16.393Z,97814.00
2023-08-28T13:21:18.389Z,97810.78
2023-08-28T13:26:20.234Z,97809.19
2023-08-28T13:31:22.205Z,97807.78
2023-08-28T13:36:24.237Z,97814.06
2023-08-28T13:41:26.098Z,97816.69
2023-08-28T13:46:27.987Z,97801.97
2023-08-28T13:51:29.810Z,97826.56
2023-08-28T13:56:32.019Z,97816.75
2023-08-28T14:01:35.061Z,97806.25
2023-08-28T14:06:37.164Z,97816.53
2023-08-28T14:11:39.068Z,97827.22
2023-08-28T14:16:40.895Z,97826.25
2023-08-28T14:21:42.768Z,97825.69
2023-08-28T14:26:44.771Z,97818.63
2023-08-28T14:31:46.771Z,97805.28
2023-08-28T14:36:48.695Z,97796.34
2023-08-28T14:41:50.640Z,97787.03
2023-08-28T14:46:52.708Z,97801.97
2023-08-28T14:51:54.632Z,97799.56
2023-08-28T14:56:56.870Z,97804.38
2023-08-28T15:01:58.847Z,97804.81
2023-08-28T15:07:02.856Z,97799.63
2023-08-28T15:12:06.466Z,97792.81
2023-08-28T15:17:08.485Z,97799.34
2023-08-28T15:22:10.346Z,97798.19
2023-08-28T15:27:12.187Z,97793.53
2023-08-28T15:32:14.136Z,97812.47
2023-08-28T15:37:16.382Z,97805.78
2023-08-28T15:42:18.337Z,97810.59
2023-08-28T15:47:20.297Z,97813.38
2023-08-28T15:52:22.505Z,97826.31
2023-08-28T15:57:24.440Z,97836.44
2023-08-28T16:02:26.420Z,97851.03
2023-08-28T16:07:28.405Z,97843.84
2023-08-28T16:12:30.335Z,97834.41
2023-08-28T16:17:32.303Z,97831.84
2023-08-28T16:22:34.359Z,97838.31
2023-08-28T16:27:37.380Z,97833.91
2023-08-28T16:32:39.266Z,97832.72
2023-08-28T16:37:41.261Z,97832.75
2023-08-28T16:42:43.237Z,97825.13
2023-08-28T16:47:45.220Z,97813.03
2023-08-28T16:52:47.204Z,97807.44
2023-08-28T16:57:49.242Z,97802.22
2023-08-28T17:02:54.118Z,97801.63
2023-08-28T17:07:57.457Z,97804.66
2023-08-28T17:13:00.998Z,97794.03
2023-08-28T17:18:02.914Z,97795.03
2023-08-28T17:23:05.359Z,97796.63
2023-08-28T17:28:10.459Z,97805.50
2023-08-28T17:38:14.427Z,97813.56
2023-08-28T17:43:16.444Z,97820.00
2023-08-28T17:48:18.276Z,97822.44
2023-08-28T17:53:20.237Z,97830.13
2023-08-28T17:58:22.266Z,97836.56
2023-08-28T18:03:38.557Z,97834.38
2023-08-28T18:08:41.742Z,97843.84
2023-08-28T18:13:44.706Z,97847.09
2023-08-28T18:18:47.553Z,97850.31
2023-08-28T18:23:52.511Z,97837.03
2023-08-28T18:28:55.940Z,97847.50
2023-08-28T18:34:00.733Z,97851.72
2023-08-28T18:39:02.685Z,97846.50
2023-08-28T18:44:06.796Z,97855.34
2023-08-28T18:49:08.700Z,97871.25
2023-08-28T18:54:10.513Z,97874.28
2023-08-28T18:59:12.340Z,97865.84
2023-08-28T19:04:14.226Z,97854.19
2023-08-28T19:09:16.241Z,97842.31
2023-08-28T19:14:18.589Z,97831.84
2023-08-28T19:19:20.901Z,97817.41
2023-08-28T19:24:23.300Z,97800.50
2023-08-28T19:29:25.672Z,97796.50
2023-08-28T19:34:29.341Z,97795.69
2023-08-28T19:39:31.860Z,97776.00
2023-08-28T19:44:34.031Z,97776.41
2023-08-28T19:49:35.824Z,97770.38
2023-08-28T19:54:40.394Z,97774.19
2023-08-28T19:59:44.723Z,97774.19
2023-08-28T20:04:47.770Z,97781.63
2023-08-28T20:09:49.625Z,97787.47
2023-08-28T20:14:52.428Z,97777.00
2023-08-28T20:19:56.027Z,97776.00
2023-08-28T20:24:57.927Z,97778.81
2023-08-28T20:29:59.846Z,97773.78
2023-08-28T20:35:01.816Z,97778.81
2023-08-28T20:40:04.331Z,97764.97
2023-08-28T20:45:06.842Z,97760.34
2023-08-28T20:50:11.501Z,97767.78
2023-08-28T20:55:13.598Z,97768.41
2023-08-28T21:00:15.611Z,97758.75
2023-08-28T21:05:17.583Z,97753.53
2023-08-28T21:10:19.730Z,97757.53
2023-08-28T21:15:22.311Z,97753.13
2023-08-28T21:20:24.166Z,97743.47
2023-08-28T21:25:28.550Z,97767.59
2023-08-28T21:30:30.379Z,97760.53
2023-08-28T21:35:32.233Z,97746.69
2023-08-28T21:40:34.129Z,97732.00
2023-08-28T21:45:36.269Z,97741.88
2023-08-28T21:50:38.186Z,97758.34
2023-08-28T21:55:58.471Z,97754.13
2023-08-28T22:01:18.769Z,97753.34
2023-08-28T22:06:39.098Z,97776.06
2023-08-28T22:11:40.981Z,97765.19
2023-08-28T22:16:50.676Z,97786.50
2023-08-28T22:21:52.785Z,97798.94
2023-08-28T22:26:57.853Z,97774.63
2023-08-28T22:31:59.782Z,97749.53
2023-08-28T22:37:01.777Z,97736.06
2023-08-28T22:42:03.829Z,97735.06
2023-08-28T22:47:05.902Z,97721.59
2023-08-28T22:52:07.771Z,97715.78
2023-08-28T22:57:10.117Z,97709.34
2023-08-28T23:02:11.915Z,97712.16
2023-08-28T23:07:14.444Z,97712.16
2023-08-28T23:12:16.366Z,97711.75
2023-08-28T23:17:18.289Z,97706.94
2023-08-28T23:22:20.185Z,97694.47
2023-08-28T23:27:22.016Z,97676.19
2023-08-28T23:32:23.942Z,97664.94
2023-08-28T23:37:25.946Z,97668.75
2023-08-28T23:42:28.117Z,97665.34
2023-08-28T23:47:30.289Z,97661.94
2023-08-28T23:52:32.225Z,97654.72
2023-08-28T23:57:34.174Z,97645.47
